sensor_id;sensor_type;location;lat;lon;timestamp;pressure;altitude;pressure_sealevel;temperature;humidity
16255;BME280;8235;52.198;9.904;2023-07-31T00:00:43;100248.88;;;17.28;88.73
16255;BME280;8235;52.198;9.904;2023-07-31T00:03:11;100238.81;;;17.30;88.81
16255;BME280;8235;52.198;9.904;2023-07-31T00:05:38;100228.91;;;17.31;88.82
16255;BME280;8235;52.198;9.904;2023-07-31T00:08:05;100240.38;;;17.33;89.01
16255;BME280;8235;52.198;9.904;2023-07-31T00:10:32;100233.00;;;17.35;88.99
16255;BME280;8235;52.198;9.904;2023-07-31T00:12:59;100223.94;;;17.36;88.73
16255;BME280;8235;52.198;9.904;2023-07-31T00:15:25;100233.00;;;17.35;88.85
16255;BME280;8235;52.198;9.904;2023-07-31T00:17:52;100232.84;;;17.37;89.13
16255;BME280;8235;52.198;9.904;2023-07-31T00:20:18;100225.63;;;17.37;89.13
16255;BME280;8235;52.198;9.904;2023-07-31T00:22:45;100220.25;;;17.37;89.07
16255;BME280;8235;52.198;9.904;2023-07-31T00:25:12;100227.47;;;17.37;89.00
16255;BME280;8235;52.198;9.904;2023-07-31T00:27:39;100231.00;;;17.37;89.04
16255;BME280;8235;52.198;9.904;2023-07-31T00:30:10;100222.09;;;17.37;89.15
16255;BME280;8235;52.198;9.904;2023-07-31T00:32:37;100222.09;;;17.37;88.95
16255;BME280;8235;52.198;9.904;2023-07-31T00:35:04;100220.53;;;17.34;89.02
16255;BME280;8235;52.198;9.904;2023-07-31T00:37:30;100225.38;;;17.30;89.10
16255;BME280;8235;52.198;9.904;2023-07-31T00:39:57;100212.91;;;17.29;89.24
16255;BME280;8235;52.198;9.904;2023-07-31T00:42:25;100209.50;;;17.27;89.39
16255;BME280;8235;52.198;9.904;2023-07-31T00:44:51;100208.81;;;17.25;89.40
16255;BME280;8235;52.198;9.904;2023-07-31T00:47:18;100203.56;;;17.24;89.32
16255;BME280;8235;52.198;9.904;2023-07-31T00:49:45;100210.94;;;17.22;89.55
16255;BME280;8235;52.198;9.904;2023-07-31T00:52:11;100208.41;;;17.20;89.69
16255;BME280;8235;52.198;9.904;2023-07-31T00:54:38;100203.03;;;17.20;89.80
16255;BME280;8235;52.198;9.904;2023-07-31T00:57:05;100206.03;;;17.17;90.17
16255;BME280;8235;52.198;9.904;2023-07-31T00:59:34;100208.72;;;17.17;90.39
16255;BME280;8235;52.198;9.904;2023-07-31T01:02:01;100196.28;;;17.16;90.84
16255;BME280;8235;52.198;9.904;2023-07-31T01:04:27;100197.28;;;17.15;91.28
16255;BME280;8235;52.198;9.904;2023-07-31T01:06:59;100201.66;;;17.16;91.33
16255;BME280;8235;52.198;9.904;2023-07-31T01:09:33;100190.91;;;17.16;91.27
16255;BME280;8235;52.198;9.904;2023-07-31T01:12:02;100193.59;;;17.16;91.34
16255;BME280;8235;52.198;9.904;2023-07-31T01:14:29;100196.56;;;17.13;91.66
16255;BME280;8235;52.198;9.904;2023-07-31T01:16:57;100182.41;;;17.11;92.17
16255;BME280;8235;52.198;9.904;2023-07-31T01:19:25;100178.03;;;17.10;92.67
16255;BME280;8235;52.198;9.904;2023-07-31T01:22:15;100171.09;;;17.08;92.95
16255;BME280;8235;52.198;9.904;2023-07-31T01:24:55;100166.56;;;17.08;93.03
16255;BME280;8235;52.198;9.904;2023-07-31T01:27:29;100157.09;;;17.04;93.49
16255;BME280;8235;52.198;9.904;2023-07-31T01:30:03;100162.63;;;17.02;93.65
16255;BME280;8235;52.198;9.904;2023-07-31T01:32:36;100155.03;;;16.98;94.33
16255;BME280;8235;52.198;9.904;2023-07-31T01:35:06;100151.78;;;16.94;94.99
16255;BME280;8235;52.198;9.904;2023-07-31T01:37:32;100148.53;;;16.91;95.38
16255;BME280;8235;52.198;9.904;2023-07-31T01:39:59;100151.81;;;16.85;96.20
16255;BME280;8235;52.198;9.904;2023-07-31T01:42:27;100146.06;;;16.80;96.58
16255;BME280;8235;52.198;9.904;2023-07-31T01:44:53;100138.28;;;16.77;96.95
16255;BME280;8235;52.198;9.904;2023-07-31T01:47:20;100134.91;;;16.75;97.56
16255;BME280;8235;52.198;9.904;2023-07-31T01:49:46;100136.19;;;16.71;98.34
16255;BME280;8235;52.198;9.904;2023-07-31T01:52:12;100129.09;;;16.70;98.57
16255;BME280;8235;52.198;9.904;2023-07-31T01:54:39;100121.34;;;16.66;98.90
16255;BME280;8235;52.198;9.904;2023-07-31T01:57:06;100117.97;;;16.64;99.61
16255;BME280;8235;52.198;9.904;2023-07-31T01:59:34;100114.69;;;16.61;100.00
16255;BME280;8235;52.198;9.904;2023-07-31T02:02:00;100110.47;;;16.58;100.00
16255;BME280;8235;52.198;9.904;2023-07-31T02:04:27;100118.69;;;16.57;100.00
16255;BME280;8235;52.198;9.904;2023-07-31T02:06:53;100117.13;;;16.54;100.00
16255;BME280;8235;52.198;9.904;2023-07-31T02:09:20;100115.72;;;16.50;100.00
16255;BME280;8235;52.198;9.904;2023-07-31T02:11:46;100114.88;;;16.50;100.00
16255;BME280;8235;52.198;9.904;2023-07-31T02:14:13;100115.34;;;16.45;100.00
16255;BME280;8235;52.198;9.904;2023-07-31T02:16:40;100111.09;;;16.43;100.00
16255;BME280;8235;52.198;9.904;2023-07-31T02:19:08;100106.56;;;16.43;100.00
16255;BME280;8235;52.198;9.904;2023-07-31T02:21:34;100111.66;;;16.46;100.00
16255;BME280;8235;52.198;9.904;2023-07-31T02:24:00;100097.53;;;16.44;100.00
16255;BME280;8235;52.198;9.904;2023-07-31T02:26:27;100098.38;;;16.45;100.00
16255;BME280;8235;52.198;9.904;2023-07-31T02:28:53;100083.09;;;16.45;100.00
16255;BME280;8235;52.198;9.904;2023-07-31T02:31:20;100093.97;;;16.44;100.00
16255;BME280;8235;52.198;9.904;2023-07-31T02:33:48;100090.31;;;16.45;100.00
16255;BME280;8235;52.198;9.904;2023-07-31T02:36:14;100094.81;;;16.44;100.00
16255;BME280;8235;52.198;9.904;2023-07-31T02:38:41;100094.97;;;16.43;100.00
16255;BME280;8235;52.198;9.904;2023-07-31T02:41:07;100085.06;;;16.43;100.00
16255;BME280;8235;52.198;9.904;2023-07-31T02:43:33;100089.59;;;16.43;100.00
16255;BME280;8235;52.198;9.904;2023-07-31T02:46:00;100091.44;;;16.42;100.00
16255;BME280;8235;52.198;9.904;2023-07-31T02:48:26;100089.59;;;16.43;100.00
16255;BME280;8235;52.198;9.904;2023-07-31T02:50:54;100085.78;;;16.45;100.00
16255;BME280;8235;52.198;9.904;2023-07-31T02:53:21;100083.09;;;16.45;100.00
16255;BME280;8235;52.198;9.904;2023-07-31T02:55:48;100085.63;;;16.47;100.00
16255;BME280;8235;52.198;9.904;2023-07-31T02:58:14;100078.22;;;16.49;100.00
16255;BME280;8235;52.198;9.904;2023-07-31T03:00:42;100071.88;;;16.50;100.00
16255;BME280;8235;52.198;9.904;2023-07-31T03:03:08;100081.94;;;16.48;100.00
16255;BME280;8235;52.198;9.904;2023-07-31T03:05:35;100078.22;;;16.49;100.00
16255;BME280;8235;52.198;9.904;2023-07-31T03:08:03;100087.16;;;16.49;100.00
16255;BME280;8235;52.198;9.904;2023-07-31T03:10:29;100086.16;;;16.50;100.00
16255;BME280;8235;52.198;9.904;2023-07-31T03:12:56;100080.78;;;16.50;100.00
16255;BME280;8235;52.198;9.904;2023-07-31T03:15:22;100083.47;;;16.50;100.00
16255;BME280;8235;52.198;9.904;2023-07-31T03:17:49;100084.16;;;16.52;100.00
16255;BME280;8235;52.198;9.904;2023-07-31T03:20:15;100072.72;;;16.50;100.00
16255;BME280;8235;52.198;9.904;2023-07-31T03:22:42;100071.72;;;16.51;100.00
16255;BME280;8235;52.198;9.904;2023-07-31T03:25:10;100089.84;;;16.49;100.00
16255;BME280;8235;52.198;9.904;2023-07-31T03:27:36;100085.31;;;16.50;100.00
16255;BME280;8235;52.198;9.904;2023-07-31T03:30:04;100088.84;;;16.50;100.00
16255;BME280;8235;52.198;9.904;2023-07-31T03:32:30;100091.53;;;16.50;100.00
16255;BME280;8235;52.198;9.904;2023-07-31T03:34:57;100091.53;;;16.50;100.00
16255;BME280;8235;52.198;9.904;2023-07-31T03:37:23;100100.59;;;16.49;100.00
16255;BME280;8235;52.198;9.904;2023-07-31T03:39:50;100090.16;;;16.46;100.00
16255;BME280;8235;52.198;9.904;2023-07-31T03:42:18;100102.91;;;16.44;100.00
16255;BME280;8235;52.198;9.904;2023-07-31T03:44:44;100101.34;;;16.42;100.00
16255;BME280;8235;52.198;9.904;2023-07-31T03:47:10;100100.50;;;16.41;100.00
16255;BME280;8235;52.198;9.904;2023-07-31T03:49:37;100098.81;;;16.40;100.00
16255;BME280;8235;52.198;9.904;2023-07-31T03:52:04;100102.47;;;16.39;100.00
16255;BME280;8235;52.198;9.904;2023-07-31T03:54:30;100105.88;;;16.41;100.00
16255;BME280;8235;52.198;9.904;2023-07-31T03:56:57;100102.47;;;16.39;100.00
16255;BME280;8235;52.198;9.904;2023-07-31T03:59:24;100097.41;;;16.36;100.00
16255;BME280;8235;52.198;9.904;2023-07-31T04:01:51;100094.72;;;16.36;100.00
16255;BME280;8235;52.198;9.904;2023-07-31T04:04:17;100088.91;;;16.31;100.00
16255;BME280;8235;52.198;9.904;2023-07-31T04:06:44;100090.09;;;16.28;100.00
16255;BME280;8235;52.198;9.904;2023-07-31T04:09:10;100088.53;;;16.26;100.00
16255;BME280;8235;52.198;9.904;2023-07-31T04:11:37;100088.81;;;16.23;100.00
16255;BME280;8235;52.198;9.904;2023-07-31T04:14:04;100087.28;;;16.20;100.00
16255;BME280;8235;52.198;9.904;2023-07-31T04:16:32;100092.94;;;16.17;100.00
16255;BME280;8235;52.198;9.904;2023-07-31T04:18:58;100086.84;;;16.15;100.00
16255;BME280;8235;52.198;9.904;2023-07-31T04:21:25;100085.16;;;16.14;100.00
16255;BME280;8235;52.198;9.904;2023-07-31T04:23:51;100074.75;;;16.11;100.00
16255;BME280;8235;52.198;9.904;2023-07-31T04:26:21;100079.25;;;16.11;100.00
16255;BME280;8235;52.198;9.904;2023-07-31T04:28:47;100080.25;;;16.10;100.00
16255;BME280;8235;52.198;9.904;2023-07-31T04:31:13;100082.09;;;16.09;100.00
16255;BME280;8235;52.198;9.904;2023-07-31T04:33:41;100078.41;;;16.10;100.00
16255;BME280;8235;52.198;9.904;2023-07-31T04:36:08;100075.88;;;16.09;100.00
16255;BME280;8235;52.198;9.904;2023-07-31T04:38:34;100069.66;;;16.08;100.00
16255;BME280;8235;52.198;9.904;2023-07-31T04:41:01;100069.78;;;16.07;100.00
16255;BME280;8235;52.198;9.904;2023-07-31T04:43:27;100070.78;;;16.06;100.00
16255;BME280;8235;52.198;9.904;2023-07-31T04:45:54;100073.47;;;16.06;100.00
16255;BME280;8235;52.198;9.904;2023-07-31T04:48:20;100073.47;;;16.06;100.00
16255;BME280;8235;52.198;9.904;2023-07-31T04:50:48;100076.00;;;16.07;100.00
16255;BME280;8235;52.198;9.904;2023-07-31T04:53:14;100070.78;;;16.06;100.00
16255;BME280;8235;52.198;9.904;2023-07-31T04:55:41;100067.41;;;16.04;100.00
16255;BME280;8235;52.198;9.904;2023-07-31T04:58:07;100058.34;;;16.05;100.00
16255;BME280;8235;52.198;9.904;2023-07-31T05:00:34;100058.34;;;16.05;100.00
16255;BME280;8235;52.198;9.904;2023-07-31T05:03:00;100063.44;;;16.08;100.00
16255;BME280;8235;52.198;9.904;2023-07-31T05:05:26;100052.69;;;16.08;100.00
16255;BME280;8235;52.198;9.904;2023-07-31T05:07:54;100051.00;;;16.07;100.00
16255;BME280;8235;52.198;9.904;2023-07-31T05:10:21;100060.75;;;16.08;100.00
16255;BME280;8235;52.198;9.904;2023-07-31T05:12:47;100057.06;;;16.09;100.00
16255;BME280;8235;52.198;9.904;2023-07-31T05:15:14;100056.78;;;16.12;100.00
16255;BME280;8235;52.198;9.904;2023-07-31T05:17:40;100054.91;;;16.12;100.00
16255;BME280;8235;52.198;9.904;2023-07-31T05:20:08;100048.41;;;16.15;100.00
16255;BME280;8235;52.198;9.904;2023-07-31T05:22:34;100052.63;;;16.17;100.00
16255;BME280;8235;52.198;9.904;2023-07-31T05:25:02;100050.66;;;16.19;100.00
16255;BME280;8235;52.198;9.904;2023-07-31T05:27:29;100047.13;;;16.19;100.00
16255;BME280;8235;52.198;9.904;2023-07-31T05:29:56;100038.22;;;16.18;100.00
16255;BME280;8235;52.198;9.904;2023-07-31T05:32:22;100041.88;;;16.17;100.00
16255;BME280;8235;52.198;9.904;2023-07-31T05:34:50;100048.81;;;16.20;100.00
16255;BME280;8235;52.198;9.904;2023-07-31T05:37:17;100045.28;;;16.19;100.00
16255;BME280;8235;52.198;9.904;2023-07-31T05:39:43;100044.13;;;16.22;100.00
16255;BME280;8235;52.198;9.904;2023-07-31T05:42:11;100047.69;;;16.22;100.00
16255;BME280;8235;52.198;9.904;2023-07-31T05:44:38;100054.59;;;16.25;100.00
16255;BME280;8235;52.198;9.904;2023-07-31T05:47:04;100050.91;;;16.26;100.00
16255;BME280;8235;52.198;9.904;2023-07-31T05:49:31;100040.16;;;16.26;100.00
16255;BME280;8235;52.198;9.904;2023-07-31T05:51:57;100027.28;;;16.29;100.00
16255;BME280;8235;52.198;9.904;2023-07-31T05:54:24;100041.72;;;16.28;100.00
16255;BME280;8235;52.198;9.904;2023-07-31T05:56:50;100046.94;;;16.30;100.00
16255;BME280;8235;52.198;9.904;2023-07-31T05:59:18;100043.25;;;16.31;100.00
16255;BME280;8235;52.198;9.904;2023-07-31T06:01:45;100049.31;;;16.33;100.00
16255;BME280;8235;52.198;9.904;2023-07-31T06:04:11;100032.19;;;16.34;100.00
16255;BME280;8235;52.198;9.904;2023-07-31T06:06:38;100038.41;;;16.35;100.00
16255;BME280;8235;52.198;9.904;2023-07-31T06:09:05;100042.94;;;16.34;100.00
16255;BME280;8235;52.198;9.904;2023-07-31T06:11:32;100037.56;;;16.34;100.00
16255;BME280;8235;52.198;9.904;2023-07-31T06:13:58;100039.25;;;16.35;100.00
16255;BME280;8235;52.198;9.904;2023-07-31T06:16:26;100038.28;;;16.36;100.00
16255;BME280;8235;52.198;9.904;2023-07-31T06:18:53;100036.00;;;16.41;100.00
16255;BME280;8235;52.198;9.904;2023-07-31T06:21:19;100047.75;;;16.40;100.00
16255;BME280;8235;52.198;9.904;2023-07-31T06:23:46;100037.84;;;16.41;100.00
16255;BME280;8235;52.198;9.904;2023-07-31T06:26:12;100040.66;;;16.39;100.00
16255;BME280;8235;52.198;9.904;2023-07-31T06:28:39;100046.44;;;16.44;100.00
16255;BME280;8235;52.198;9.904;2023-07-31T06:31:06;100045.75;;;16.42;100.00
16255;BME280;8235;52.198;9.904;2023-07-31T06:33:34;100046.75;;;16.41;100.00
16255;BME280;8235;52.198;9.904;2023-07-31T06:36:00;100045.75;;;16.42;100.00
16255;BME280;8235;52.198;9.904;2023-07-31T06:38:27;100041.06;;;16.44;100.00
16255;BME280;8235;52.198;9.904;2023-07-31T06:40:53;100042.06;;;16.43;100.00
16255;BME280;8235;52.198;9.904;2023-07-31T06:43:20;100035.56;;;16.46;100.00
16255;BME280;8235;52.198;9.904;2023-07-31T06:45:47;100036.53;;;16.45;100.00
16255;BME280;8235;52.198;9.904;2023-07-31T06:48:15;100036.69;;;16.43;100.00
16255;BME280;8235;52.198;9.904;2023-07-31T06:50:43;100051.13;;;16.42;100.00
16255;BME280;8235;52.198;9.904;2023-07-31T06:53:10;100045.75;;;16.42;100.00
16255;BME280;8235;52.198;9.904;2023-07-31T06:55:36;100042.06;;;16.43;100.00
16255;BME280;8235;52.198;9.904;2023-07-31T06:58:03;100046.03;;;16.39;100.00
16255;BME280;8235;52.198;9.904;2023-07-31T07:00:30;100035.28;;;16.39;100.00
16255;BME280;8235;52.198;9.904;2023-07-31T07:02:57;100031.59;;;16.40;100.00
16255;BME280;8235;52.198;9.904;2023-07-31T07:05:24;100036.53;;;16.45;100.00
16255;BME280;8235;52.198;9.904;2023-07-31T07:07:52;100035.22;;;16.49;100.00
16255;BME280;8235;52.198;9.904;2023-07-31T07:10:18;100032.03;;;16.45;100.00
16255;BME280;8235;52.198;9.904;2023-07-31T07:12:45;100025.66;;;16.46;100.00
16255;BME280;8235;52.198;9.904;2023-07-31T07:15:12;100031.03;;;16.46;100.00
16255;BME280;8235;52.198;9.904;2023-07-31T07:17:38;100027.34;;;16.47;100.00
16255;BME280;8235;52.198;9.904;2023-07-31T07:20:06;100011.22;;;16.47;100.00
16255;BME280;8235;52.198;9.904;2023-07-31T07:22:33;100019.09;;;16.49;100.00
16255;BME280;8235;52.198;9.904;2023-07-31T07:25:00;100021.78;;;16.49;100.00
16255;BME280;8235;52.198;9.904;2023-07-31T07:27:27;100025.16;;;16.51;100.00
16255;BME280;8235;52.198;9.904;2023-07-31T07:29:53;100029.41;;;16.53;100.00
16255;BME280;8235;52.198;9.904;2023-07-31T07:32:20;100022.03;;;16.55;100.00
16255;BME280;8235;52.198;9.904;2023-07-31T07:34:47;100022.28;;;16.62;100.00
16255;BME280;8235;52.198;9.904;2023-07-31T07:37:14;100017.50;;;16.65;100.00
16255;BME280;8235;52.198;9.904;2023-07-31T07:39:41;100017.50;;;16.65;100.00
16255;BME280;8235;52.198;9.904;2023-07-31T07:42:08;100023.53;;;16.67;100.00
16255;BME280;8235;52.198;9.904;2023-07-31T07:44:35;100030.63;;;16.69;100.00
16255;BME280;8235;52.198;9.904;2023-07-31T07:47:02;100037.69;;;16.70;100.00
16255;BME280;8235;52.198;9.904;2023-07-31T07:49:28;100039.38;;;16.71;100.00
16255;BME280;8235;52.198;9.904;2023-07-31T07:51:55;100041.78;;;16.74;100.00
16255;BME280;8235;52.198;9.904;2023-07-31T07:54:21;100045.00;;;16.77;100.00
16255;BME280;8235;52.198;9.904;2023-07-31T07:56:48;100042.19;;;16.79;100.00
16255;BME280;8235;52.198;9.904;2023-07-31T07:59:16;100042.56;;;16.84;100.00
16255;BME280;8235;52.198;9.904;2023-07-31T08:01:42;100042.41;;;16.85;100.00
16255;BME280;8235;52.198;9.904;2023-07-31T08:04:09;100040.41;;;16.87;100.00
16255;BME280;8235;52.198;9.904;2023-07-31T08:06:35;100037.56;;;16.89;100.00
16255;BME280;8235;52.198;9.904;2023-07-31T08:09:02;100032.19;;;16.89;100.00
16255;BME280;8235;52.198;9.904;2023-07-31T08:11:31;100039.25;;;16.90;100.00
16255;BME280;8235;52.198;9.904;2023-07-31T08:13:58;100043.78;;;16.89;100.00
16255;BME280;8235;52.198;9.904;2023-07-31T08:16:25;100038.41;;;16.89;100.00
16255;BME280;8235;52.198;9.904;2023-07-31T08:18:52;100030.19;;;16.91;100.00
16255;BME280;8235;52.198;9.904;2023-07-31T08:21:18;100037.81;;;16.95;100.00
16255;BME280;8235;52.198;9.904;2023-07-31T08:23:45;100034.97;;;16.97;100.00
16255;BME280;8235;52.198;9.904;2023-07-31T08:26:14;100037.50;;;16.98;100.00
16255;BME280;8235;52.198;9.904;2023-07-31T08:28:41;100023.06;;;16.99;100.00
16255;BME280;8235;52.198;9.904;2023-07-31T08:31:08;100028.97;;;17.03;100.00
16255;BME280;8235;52.198;9.904;2023-07-31T08:33:35;100027.50;;;17.09;100.00
16255;BME280;8235;52.198;9.904;2023-07-31T08:36:02;100030.91;;;17.11;100.00
16255;BME280;8235;52.198;9.904;2023-07-31T08:38:29;100017.28;;;17.12;100.00
16255;BME280;8235;52.198;9.904;2023-07-31T08:40:56;100016.97;;;17.15;100.00
16255;BME280;8235;52.198;9.904;2023-07-31T08:43:25;100017.69;;;17.17;100.00
16255;BME280;8235;52.198;9.904;2023-07-31T08:45:52;100023.75;;;17.19;100.00
16255;BME280;8235;52.198;9.904;2023-07-31T08:48:20;100005.28;;;17.24;100.00
16255;BME280;8235;52.198;9.904;2023-07-31T08:50:48;100009.81;;;17.24;100.00
16255;BME280;8235;52.198;9.904;2023-07-31T08:53:14;100008.81;;;17.25;100.00
16255;BME280;8235;52.198;9.904;2023-07-31T08:55:42;100013.50;;;17.23;100.00
16255;BME280;8235;52.198;9.904;2023-07-31T08:58:09;100003.59;;;17.23;100.00
16255;BME280;8235;52.198;9.904;2023-07-31T09:00:39;99994.50;;;17.24;100.00
16255;BME280;8235;52.198;9.904;2023-07-31T09:03:08;99999.91;;;17.24;100.00
16255;BME280;8235;52.198;9.904;2023-07-31T09:05:36;100002.28;;;17.27;100.00
16255;BME280;8235;52.198;9.904;2023-07-31T09:08:07;99987.59;;;17.22;100.00
16255;BME280;8235;52.198;9.904;2023-07-31T09:10:35;99987.75;;;17.20;100.00
16255;BME280;8235;52.198;9.904;2023-07-31T09:13:02;99990.63;;;17.19;100.00
16255;BME280;8235;52.198;9.904;2023-07-31T09:15:30;99989.59;;;17.20;100.00
16255;BME280;8235;52.198;9.904;2023-07-31T09:18:00;99987.59;;;17.22;100.00
16255;BME280;8235;52.198;9.904;2023-07-31T09:20:27;99986.44;;;17.24;100.00
16255;BME280;8235;52.198;9.904;2023-07-31T09:22:54;99974.97;;;17.22;100.00
16255;BME280;8235;52.198;9.904;2023-07-31T09:25:24;99977.53;;;17.24;100.00
16255;BME280;8235;52.198;9.904;2023-07-31T09:27:52;99978.38;;;17.24;100.00
16255;BME280;8235;52.198;9.904;2023-07-31T09:30:20;99981.75;;;17.26;100.00
16255;BME280;8235;52.198;9.904;2023-07-31T09:32:48;99978.06;;;17.27;100.00
16255;BME280;8235;52.198;9.904;2023-07-31T09:35:20;99976.91;;;17.30;100.00
16255;BME280;8235;52.198;9.904;2023-07-31T09:37:50;99967.84;;;17.31;100.00
16255;BME280;8235;52.198;9.904;2023-07-31T09:40:28;99972.38;;;17.30;100.00
16255;BME280;8235;52.198;9.904;2023-07-31T09:42:59;99972.38;;;17.30;100.00
16255;BME280;8235;52.198;9.904;2023-07-31T09:45:26;99964.97;;;17.32;100.00
16255;BME280;8235;52.198;9.904;2023-07-31T09:47:53;99954.22;;;17.32;100.00
16255;BME280;8235;52.198;9.904;2023-07-31T09:50:21;99956.91;;;17.32;100.00
16255;BME280;8235;52.198;9.904;2023-07-31T09:52:48;99956.06;;;17.32;100.00
16255;BME280;8235;52.198;9.904;2023-07-31T09:55:14;99958.59;;;17.33;100.00
16255;BME280;8235;52.198;9.904;2023-07-31T09:57:45;99956.59;;;17.35;100.00
16255;BME280;8235;52.198;9.904;2023-07-31T10:00:14;99946.84;;;17.34;100.00
16255;BME280;8235;52.198;9.904;2023-07-31T10:02:43;99956.59;;;17.35;100.00
16255;BME280;8235;52.198;9.904;2023-07-31T10:05:12;99945.50;;;17.39;100.00
16255;BME280;8235;52.198;9.904;2023-07-31T10:07:42;99952.25;;;17.43;100.00
16255;BME280;8235;52.198;9.904;2023-07-31T10:10:09;99942.03;;;17.46;100.00
16255;BME280;8235;52.198;9.904;2023-07-31T10:12:37;99945.25;;;17.50;100.00
16255;BME280;8235;52.198;9.904;2023-07-31T10:15:06;99936.53;;;17.56;100.00
16255;BME280;8235;52.198;9.904;2023-07-31T10:17:35;99947.66;;;17.61;100.00
16255;BME280;8235;52.198;9.904;2023-07-31T10:20:02;99939.16;;;17.65;100.00
16255;BME280;8235;52.198;9.904;2023-07-31T10:22:30;99943.06;;;17.71;100.00
16255;BME280;8235;52.198;9.904;2023-07-31T10:24:58;99944.75;;;17.72;100.00
16255;BME280;8235;52.198;9.904;2023-07-31T10:27:25;99940.72;;;17.76;100.00
16255;BME280;8235;52.198;9.904;2023-07-31T10:29:53;99936.84;;;17.79;100.00
16255;BME280;8235;52.198;9.904;2023-07-31T10:32:22;99933.00;;;17.81;100.00
16255;BME280;8235;52.198;9.904;2023-07-31T10:34:51;99932.53;;;17.86;100.00
16255;BME280;8235;52.198;9.904;2023-07-31T10:37:23;99930.84;;;17.93;100.00
16255;BME280;8235;52.198;9.904;2023-07-31T10:39:57;99934.06;;;17.96;100.00
16255;BME280;8235;52.198;9.904;2023-07-31T10:42:31;99928.91;;;18.03;100.00
16255;BME280;8235;52.198;9.904;2023-07-31T10:45:00;99917.28;;;18.11;100.00
16255;BME280;8235;52.198;9.904;2023-07-31T10:47:29;99908.06;;;18.21;100.00
16255;BME280;8235;52.198;9.904;2023-07-31T10:50:17;99906.59;;;18.35;100.00
16255;BME280;8235;52.198;9.904;2023-07-31T10:52:46;99908.13;;;18.46;100.00
16255;BME280;8235;52.198;9.904;2023-07-31T10:55:25;99904.66;;;18.61;100.00
16255;BME280;8235;52.198;9.904;2023-07-31T10:57:52;99907.53;;;18.76;100.00
16255;BME280;8235;52.198;9.904;2023-07-31T11:00:21;99893.53;;;18.89;100.00
16255;BME280;8235;52.198;9.904;2023-07-31T11:03:00;99905.66;;;19.01;100.00
16255;BME280;8235;52.198;9.904;2023-07-31T11:05:48;99892.34;;;19.07;98.76
16255;BME280;8235;52.198;9.904;2023-07-31T11:08:17;99897.06;;;19.14;95.60
16255;BME280;8235;52.198;9.904;2023-07-31T11:10:45;99899.78;;;19.14;93.34
16255;BME280;8235;52.198;9.904;2023-07-31T11:13:12;99887.78;;;19.16;92.54
16255;BME280;8235;52.198;9.904;2023-07-31T11:15:39;99895.19;;;19.22;92.81
16255;BME280;8235;52.198;9.904;2023-07-31T11:18:07;99896.53;;;19.26;91.48
16255;BME280;8235;52.198;9.904;2023-07-31T11:20:36;99890.47;;;19.24;89.79
16255;BME280;8235;52.198;9.904;2023-07-31T11:23:05;99893.69;;;19.28;89.65
16255;BME280;8235;52.198;9.904;2023-07-31T11:25:32;99887.78;;;19.32;89.75
16255;BME280;8235;52.198;9.904;2023-07-31T11:28:03;99895.69;;;19.34;89.49
16255;BME280;8235;52.198;9.904;2023-07-31T11:30:29;99896.53;;;19.34;88.83
16255;BME280;8235;52.198;9.904;2023-07-31T11:32:56;99882.00;;;19.35;88.02
16255;BME280;8235;52.198;9.904;2023-07-31T11:35:24;99884.06;;;19.33;88.24
16255;BME280;8235;52.198;9.904;2023-07-31T11:37:50;99891.94;;;19.35;88.35
16255;BME280;8235;52.198;9.904;2023-07-31T11:40:17;99878.63;;;19.41;87.50
16255;BME280;8235;52.198;9.904;2023-07-31T11:42:45;99883.50;;;19.46;87.41
16255;BME280;8235;52.198;9.904;2023-07-31T11:45:11;99884.88;;;19.50;87.75
16255;BME280;8235;52.198;9.904;2023-07-31T11:47:38;99883.34;;;19.56;88.26
16255;BME280;8235;52.198;9.904;2023-07-31T11:50:07;99874.53;;;19.62;87.47
16255;BME280;8235;52.198;9.904;2023-07-31T11:52:39;99871.31;;;19.66;87.74
16255;BME280;8235;52.198;9.904;2023-07-31T11:55:08;99872.47;;;19.72;87.45
16255;BME280;8235;52.198;9.904;2023-07-31T11:57:37;99871.78;;;19.78;86.89
16255;BME280;8235;52.198;9.904;2023-07-31T12:00:05;99854.72;;;19.77;86.58
16255;BME280;8235;52.198;9.904;2023-07-31T12:02:32;99850.84;;;19.80;85.64
16255;BME280;8235;52.198;9.904;2023-07-31T12:04:59;99850.50;;;19.83;85.56
16255;BME280;8235;52.198;9.904;2023-07-31T12:07:25;99851.63;;;19.89;85.19
16255;BME280;8235;52.198;9.904;2023-07-31T12:09:53;99857.69;;;19.91;85.54
16255;BME280;8235;52.198;9.904;2023-07-31T12:12:20;99848.06;;;19.96;85.88
16255;BME280;8235;52.198;9.904;2023-07-31T12:14:47;99860.19;;;20.00;85.56
16255;BME280;8235;52.198;9.904;2023-07-31T12:17:14;99853.94;;;20.00;84.00
16255;BME280;8235;52.198;9.904;2023-07-31T12:19:41;99865.44;;;20.02;84.90
16255;BME280;8235;52.198;9.904;2023-07-31T12:22:11;99867.28;;;20.01;85.84
16255;BME280;8235;52.198;9.904;2023-07-31T12:24:39;99855.63;;;20.01;85.77
16255;BME280;8235;52.198;9.904;2023-07-31T12:27:10;99855.63;;;20.01;85.87
16255;BME280;8235;52.198;9.904;2023-07-31T12:29:37;99853.78;;;20.01;86.88
16255;BME280;8235;52.198;9.904;2023-07-31T12:32:04;99839.94;;;19.96;87.48
16255;BME280;8235;52.198;9.904;2023-07-31T12:34:31;99851.78;;;19.95;87.94
16255;BME280;8235;52.198;9.904;2023-07-31T12:37:08;99851.78;;;19.95;88.51
16255;BME280;8235;52.198;9.904;2023-07-31T12:39:34;99852.47;;;19.89;88.67
16255;BME280;8235;52.198;9.904;2023-07-31T12:42:01;99856.84;;;19.90;89.79
16255;BME280;8235;52.198;9.904;2023-07-31T12:44:28;99847.56;;;19.93;90.11
16255;BME280;8235;52.198;9.904;2023-07-31T12:46:55;99850.81;;;19.88;90.70
16255;BME280;8235;52.198;9.904;2023-07-31T12:49:21;99852.84;;;19.86;90.65
16255;BME280;8235;52.198;9.904;2023-07-31T12:51:48;99851.00;;;19.79;91.59
16255;BME280;8235;52.198;9.904;2023-07-31T12:54:15;99851.53;;;19.74;92.81
16255;BME280;8235;52.198;9.904;2023-07-31T12:56:41;99848.53;;;19.69;93.79